Time;durP1;ratioP1;P1;durP2;ratioP2;P2;SDS_P1;SDS_P2;PMS_P1;PMS_P2;Temp;Humidity;BMP_temperature;BMP_pressure;BME280_temperature;BME280_humidity;BME280_pressure;Samples;Min_cycle;Max_cycle;Signal;HPM_P1;HPM_P2
2022/10/29 00:00:37;;;;;;;0.00;0.00;;;13.30;99.90;;;;;;4992792;28;20260;-65
2022/10/29 00:03:03;;;;;;;0.00;0.00;;;13.30;99.90;;;;;;5001798;28;20282;-65
2022/10/29 00:05:29;;;;;;;0.00;0.00;;;13.30;99.90;;;;;;4994294;28;20179;-65
2022/10/29 00:07:54;;;;;;;0.00;0.00;;;13.30;99.90;;;;;;5007849;28;20210;-65
2022/10/29 00:10:20;;;;;;;0.70;0.50;;;13.30;99.90;;;;;;4995357;28;20176;-65
2022/10/29 00:12:45;;;;;;;0.05;0.05;;;13.30;99.90;;;;;;5008688;28;20190;-65
2022/10/29 00:15:11;;;;;;;0.05;0.05;;;13.30;99.90;;;;;;5000385;28;20175;-65
2022/10/29 00:17:37;;;;;;;0.00;0.00;;;13.30;99.90;;;;;;4997740;28;20234;-65
2022/10/29 00:20:03;;;;;;;0.22;0.22;;;13.30;99.90;;;;;;4999086;28;20207;-65
2022/10/29 00:22:28;;;;;;;1.38;0.15;;;13.40;99.90;;;;;;4996875;28;20672;-65
2022/10/29 00:24:54;;;;;;;0.00;0.00;;;13.40;99.90;;;;;;5004761;28;20171;-65
2022/10/29 00:27:19;;;;;;;0.00;0.00;;;13.40;99.90;;;;;;5006248;28;20221;-65
2022/10/29 00:29:45;;;;;;;0.63;0.28;;;13.40;99.90;;;;;;4995963;28;20230;-65
2022/10/29 00:32:10;;;;;;;0.28;0.28;;;13.40;99.90;;;;;;5008026;28;20178;-66
2022/10/29 00:34:36;;;;;;;0.20;0.20;;;13.40;99.90;;;;;;5003349;28;20203;-66
2022/10/29 00:37:05;;;;;;;0.00;0.00;;;13.40;99.90;;;;;;4999769;28;20201;-66
2022/10/29 00:39:32;;;;;;;0.90;0.40;;;13.40;99.90;;;;;;4992072;28;20186;-66
2022/10/29 00:41:58;;;;;;;0.00;0.00;;;13.40;99.90;;;;;;4999825;28;20184;-66
2022/10/29 00:44:28;;;;;;;0.10;0.10;;;13.40;99.90;;;;;;4999312;28;20186;-66
2022/10/29 00:47:24;;;;;;;0.00;0.00;;;13.40;99.90;;;;;;4999068;28;20246;-66
2022/10/29 00:50:03;;;;;;;0.00;0.00;;;13.40;99.90;;;;;;5008640;28;20364;-66
2022/10/29 00:52:31;;;;;;;0.00;0.00;;;13.40;99.90;;;;;;4998799;28;20680;-66
2022/10/29 00:55:01;;;;;;;0.00;0.00;;;13.40;99.90;;;;;;5004763;28;20171;-68
2022/10/29 00:57:32;;;;;;;0.00;0.00;;;13.40;99.90;;;;;;5004334;28;20581;-67
2022/10/29 00:59:57;;;;;;;0.00;0.00;;;13.40;99.90;;;;;;5004739;28;20171;-67
2022/10/29 01:02:24;;;;;;;0.00;0.00;;;13.40;99.90;;;;;;4993716;28;20185;-67
2022/10/29 01:04:52;;;;;;;0.00;0.00;;;13.40;99.90;;;;;;4990706;28;20270;-67
2022/10/29 01:07:19;;;;;;;0.00;0.00;;;13.30;99.90;;;;;;4993016;28;20207;-67
2022/10/29 01:09:45;;;;;;;0.00;0.00;;;13.30;99.90;;;;;;4993013;28;20811;-67
2022/10/29 01:12:27;;;;;;;0.00;0.00;;;13.30;99.90;;;;;;4991824;28;20190;-67
2022/10/29 01:15:19;;;;;;;0.00;0.00;;;13.30;99.90;;;;;;5007430;28;20198;-67
2022/10/29 01:18:03;;;;;;;0.28;0.28;;;13.20;99.90;;;;;;5005692;28;20680;-67
2022/10/29 01:21:02;;;;;;;0.10;0.10;;;13.20;99.90;;;;;;5014071;28;20201;-67
2022/10/29 01:23:39;;;;;;;0.10;0.10;;;13.20;99.90;;;;;;5005322;28;20179;-67
2022/10/29 01:26:35;;;;;;;0.00;0.00;;;13.20;99.90;;;;;;5014175;28;20184;-67
2022/10/29 01:29:22;;;;;;;0.00;0.00;;;13.20;99.90;;;;;;5005947;28;20289;-67
2022/10/29 01:32:18;;;;;;;0.03;0.03;;;13.20;99.90;;;;;;5001693;28;20230;-67
2022/10/29 01:34:54;;;;;;;0.00;0.00;;;13.20;99.90;;;;;;5004865;28;20188;-67
2022/10/29 01:37:28;;;;;;;0.00;0.00;;;13.10;99.90;;;;;;4999229;28;20213;-67
2022/10/29 01:40:16;;;;;;;0.00;0.00;;;13.10;99.90;;;;;;5007683;28;20182;-67
2022/10/29 01:43:03;;;;;;;0.00;0.00;;;13.10;99.90;;;;;;4998645;28;20202;-67
2022/10/29 01:45:38;;;;;;;0.00;0.00;;;13.10;99.90;;;;;;4997795;28;20266;-67
2022/10/29 01:48:12;;;;;;;0.80;0.25;;;13.10;99.90;;;;;;5004794;28;20207;-67
2022/10/29 01:50:41;;;;;;;0.00;0.00;;;13.10;99.90;;;;;;5007755;28;20185;-67
2022/10/29 01:53:07;;;;;;;1.27;0.93;;;13.10;99.90;;;;;;5010277;28;20179;-67
2022/10/29 01:55:36;;;;;;;0.00;0.00;;;13.10;99.90;;;;;;5001544;28;20266;-67
2022/10/29 01:58:03;;;;;;;0.03;0.03;;;13.10;99.90;;;;;;5010768;28;20265;-67
2022/10/29 02:00:56;;;;;;;0.00;0.00;;;13.10;99.90;;;;;;4998847;28;20179;-67
2022/10/29 02:03:47;;;;;;;0.00;0.00;;;13.10;99.90;;;;;;5008206;28;20226;-67
2022/10/29 02:06:43;;;;;;;0.10;0.10;;;13.10;99.90;;;;;;4993961;28;20197;-67
2022/10/29 02:09:40;;;;;;;0.00;0.00;;;13.10;99.90;;;;;;4999783;28;20199;-67
2022/10/29 02:12:43;;;;;;;0.00;0.00;;;13.10;99.90;;;;;;4998724;28;20270;-67
2022/10/29 02:15:21;;;;;;;0.13;0.13;;;13.10;99.90;;;;;;4998772;28;20661;-67
2022/10/29 02:17:46;;;;;;;1.77;0.65;;;13.00;99.90;;;;;;5013344;28;20256;-67
2022/10/29 02:20:13;;;;;;;0.00;0.00;;;13.00;99.90;;;;;;5011492;28;20709;-67
2022/10/29 02:22:39;;;;;;;0.00;0.00;;;13.00;99.90;;;;;;5004387;28;20211;-67
2022/10/29 02:25:06;;;;;;;0.13;0.13;;;13.00;99.90;;;;;;5009385;28;20234;-67
2022/10/29 02:27:32;;;;;;;0.00;0.00;;;12.90;99.90;;;;;;5008325;28;20219;-67
2022/10/29 02:29:58;;;;;;;0.10;0.10;;;12.90;99.90;;;;;;5004077;28;20476;-67
2022/10/29 02:32:23;;;;;;;0.30;0.30;;;12.90;99.90;;;;;;5007093;28;20186;-67
2022/10/29 02:34:49;;;;;;;0.00;0.00;;;12.90;99.90;;;;;;4997257;28;20187;-67
2022/10/29 02:37:14;;;;;;;0.00;0.00;;;12.80;99.90;;;;;;4995134;28;20183;-67
2022/10/29 02:39:40;;;;;;;0.00;0.00;;;12.80;99.90;;;;;;5001900;28;20184;-67
2022/10/29 02:42:05;;;;;;;0.00;0.00;;;12.80;99.90;;;;;;5002254;28;20174;-67
2022/10/29 02:44:31;;;;;;;0.82;0.25;;;12.70;99.90;;;;;;5000440;28;20191;-67
2022/10/29 02:46:56;;;;;;;0.00;0.00;;;12.70;99.90;;;;;;5010596;28;20591;-67
2022/10/29 02:49:22;;;;;;;0.28;0.28;;;12.70;99.90;;;;;;5003945;28;20218;-67
2022/10/29 02:51:47;;;;;;;0.00;0.00;;;12.70;99.90;;;;;;5004803;28;20634;-67
2022/10/29 02:54:13;;;;;;;0.00;0.00;;;12.70;99.90;;;;;;5010840;28;20174;-67
2022/10/29 02:56:38;;;;;;;0.60;0.17;;;12.70;99.90;;;;;;5008864;28;20685;-67
2022/10/29 02:59:05;;;;;;;0.40;0.40;;;12.70;99.90;;;;;;5004908;28;20226;-66
2022/10/29 03:01:30;;;;;;;0.35;0.35;;;12.70;99.90;;;;;;4999251;28;20599;-67
2022/10/29 03:03:57;;;;;;;0.00;0.00;;;12.70;99.90;;;;;;4994053;28;20190;-66
2022/10/29 03:06:22;;;;;;;0.25;0.20;;;12.70;99.90;;;;;;5006815;28;20195;-66
2022/10/29 03:08:48;;;;;;;0.10;0.10;;;12.60;99.90;;;;;;5006732;28;20191;-67
2022/10/29 03:11:14;;;;;;;0.10;0.10;;;12.70;99.90;;;;;;4993855;28;20642;-66
2022/10/29 03:13:39;;;;;;;0.00;0.00;;;12.60;99.90;;;;;;4992131;28;20180;-67
2022/10/29 03:16:05;;;;;;;0.30;0.30;;;12.60;99.90;;;;;;5009284;28;20522;-67
2022/10/29 03:18:31;;;;;;;0.00;0.00;;;12.60;99.90;;;;;;5010022;28;20580;-67
2022/10/29 03:20:56;;;;;;;0.10;0.10;;;12.50;99.90;;;;;;4993426;28;20256;-67
2022/10/29 03:23:22;;;;;;;0.43;0.35;;;12.50;99.90;;;;;;5001514;28;20222;-66
2022/10/29 03:25:52;;;;;;;0.75;0.13;;;12.50;99.90;;;;;;4998093;28;20187;-66
2022/10/29 03:28:18;;;;;;;0.47;0.47;;;12.50;99.90;;;;;;5004023;28;20219;-67
2022/10/29 03:30:44;;;;;;;0.15;0.05;;;12.50;99.90;;;;;;5000679;28;20219;-67
2022/10/29 03:33:09;;;;;;;0.00;0.00;;;12.60;99.90;;;;;;4997101;28;20178;-67
2022/10/29 03:35:35;;;;;;;0.45;0.45;;;12.50;99.90;;;;;;4995702;28;20242;-67
2022/10/29 03:38:00;;;;;;;0.15;0.15;;;12.50;99.90;;;;;;5008095;28;20214;-67
2022/10/29 03:40:26;;;;;;;0.00;0.00;;;12.50;99.90;;;;;;4999131;28;20265;-67
2022/10/29 03:42:52;;;;;;;0.22;0.22;;;12.60;99.90;;;;;;4992717;28;20267;-67
2022/10/29 03:45:17;;;;;;;0.17;0.00;;;12.60;99.90;;;;;;4999237;28;20266;-67
2022/10/29 03:47:43;;;;;;;0.08;0.08;;;12.60;99.90;;;;;;5004356;28;20214;-67
2022/10/29 03:50:09;;;;;;;1.00;0.85;;;12.60;99.90;;;;;;4993238;28;20564;-67
2022/10/29 03:52:35;;;;;;;0.35;0.35;;;12.60;99.90;;;;;;5003244;28;20190;-67
2022/10/29 03:55:00;;;;;;;0.30;0.30;;;12.70;99.90;;;;;;5001009;28;20701;-67
2022/10/29 03:57:26;;;;;;;0.00;0.00;;;12.70;99.90;;;;;;5001277;28;20193;-67
2022/10/29 03:59:51;;;;;;;0.00;0.00;;;12.70;99.90;;;;;;5007422;28;20234;-67
2022/10/29 04:02:17;;;;;;;0.00;0.00;;;12.70;99.90;;;;;;5000750;28;20191;-67
2022/10/29 04:04:42;;;;;;;0.32;0.32;;;12.70;99.90;;;;;;5009186;28;20225;-67
2022/10/29 04:07:08;;;;;;;0.00;0.00;;;12.70;99.90;;;;;;5000789;28;20627;-67
2022/10/29 04:09:33;;;;;;;0.65;0.15;;;12.70;99.90;;;;;;4992936;28;20183;-67
2022/10/29 04:12:00;;;;;;;0.00;0.00;;;12.60;99.90;;;;;;4999970;28;20685;-67
2022/10/29 04:14:25;;;;;;;0.52;0.52;;;12.60;99.90;;;;;;5005696;28;20175;-67
2022/10/29 04:16:51;;;;;;;0.65;0.65;;;12.60;99.90;;;;;;5004649;28;20242;-69
2022/10/29 04:19:16;;;;;;;0.20;0.10;;;12.60;99.90;;;;;;5001374;28;20191;-67
2022/10/29 04:21:42;;;;;;;0.17;0.17;;;12.70;99.90;;;;;;4996494;28;20233;-66
2022/10/29 04:24:07;;;;;;;0.28;0.28;;;12.70;99.90;;;;;;5008337;28;20222;-67
2022/10/29 04:26:33;;;;;;;0.10;0.10;;;12.70;99.90;;;;;;5011530;28;20202;-64
2022/10/29 04:28:58;;;;;;;0.00;0.00;;;12.60;99.90;;;;;;4996516;28;20201;-66
2022/10/29 04:31:24;;;;;;;0.00;0.00;;;12.60;99.90;;;;;;4992311;28;20176;-65
2022/10/29 04:33:54;;;;;;;0.20;0.20;;;12.60;99.90;;;;;;5008533;28;20297;-65
2022/10/29 04:36:20;;;;;;;0.00;0.00;;;12.60;99.90;;;;;;5000122;28;20183;-65
2022/10/29 04:38:45;;;;;;;0.10;0.10;;;12.60;99.90;;;;;;5011934;28;20181;-66
2022/10/29 04:41:11;;;;;;;0.00;0.00;;;12.60;99.90;;;;;;5012054;28;20238;-65
2022/10/29 04:43:36;;;;;;;0.00;0.00;;;12.60;99.90;;;;;;5011912;28;20249;-66
2022/10/29 04:46:02;;;;;;;0.32;0.22;;;12.60;99.90;;;;;;5011958;28;20230;-61
2022/10/29 04:48:28;;;;;;;0.00;0.00;;;12.50;99.90;;;;;;5012311;28;20218;-71
2022/10/29 04:50:54;;;;;;;0.00;0.00;;;12.50;99.90;;;;;;5015544;28;20265;-73
2022/10/29 04:53:20;;;;;;;0.00;0.00;;;12.50;99.90;;;;;;4998442;28;20280;-70
2022/10/29 04:55:46;;;;;;;0.10;0.10;;;12.50;99.90;;;;;;5015609;28;20175;-64
2022/10/29 04:58:14;;;;;;;0.00;0.00;;;12.50;99.90;;;;;;4999337;28;20654;-68
2022/10/29 05:00:40;;;;;;;0.03;0.03;;;12.40;99.90;;;;;;4995691;28;20195;-68
2022/10/29 05:03:05;;;;;;;0.00;0.00;;;12.40;99.90;;;;;;5015129;28;20720;-68
2022/10/29 05:05:31;;;;;;;0.00;0.00;;;12.40;99.90;;;;;;5015574;28;20524;-68
2022/10/29 05:08:01;;;;;;;0.38;0.38;;;12.40;99.90;;;;;;5013385;28;20272;-68
2022/10/29 05:10:28;;;;;;;0.00;0.00;;;12.40;99.90;;;;;;5005433;28;20191;-68
2022/10/29 05:12:59;;;;;;;0.00;0.00;;;12.40;99.90;;;;;;5011040;28;20527;-67
2022/10/29 05:15:25;;;;;;;0.15;0.15;;;12.40;99.90;;;;;;5014883;28;20179;-66
2022/10/29 05:17:50;;;;;;;0.13;0.13;;;12.40;99.90;;;;;;5022781;28;20231;-66
2022/10/29 05:20:16;;;;;;;0.38;0.30;;;12.40;99.90;;;;;;5015154;28;20171;-67
2022/10/29 05:22:41;;;;;;;0.00;0.00;;;12.40;99.90;;;;;;5015259;28;20174;-67
2022/10/29 05:25:07;;;;;;;0.10;0.10;;;12.40;99.90;;;;;;5015149;28;20178;-67
2022/10/29 05:27:32;;;;;;;0.00;0.00;;;12.40;99.90;;;;;;5015335;28;20215;-67
2022/10/29 05:29:58;;;;;;;0.00;0.00;;;12.40;99.90;;;;;;5015026;28;20252;-67
2022/10/29 05:32:23;;;;;;;0.35;0.35;;;12.30;99.90;;;;;;5014882;28;20531;-67
2022/10/29 05:34:49;;;;;;;0.10;0.10;;;12.30;99.90;;;;;;5015172;28;20178;-67
2022/10/29 05:37:14;;;;;;;0.00;0.00;;;12.30;99.90;;;;;;5014993;28;20175;-67
2022/10/29 05:39:40;;;;;;;0.10;0.10;;;12.30;99.90;;;;;;5015317;28;20531;-67
2022/10/29 05:42:05;;;;;;;0.10;0.10;;;12.30;99.90;;;;;;5014998;28;20175;-67
2022/10/29 05:44:31;;;;;;;0.00;0.00;;;12.30;99.90;;;;;;5014959;28;20175;-67
2022/10/29 05:46:56;;;;;;;0.00;0.00;;;12.30;99.90;;;;;;5014953;28;20203;-67
2022/10/29 05:49:22;;;;;;;0.00;0.00;;;12.30;99.90;;;;;;5014945;28;20187;-67
2022/10/29 05:51:47;;;;;;;0.25;0.25;;;12.30;99.90;;;;;;5014620;28;20186;-66
2022/10/29 05:54:13;;;;;;;0.47;0.47;;;12.30;99.90;;;;;;5014651;28;20206;-67
2022/10/29 05:56:38;;;;;;;0.15;0.05;;;12.30;99.90;;;;;;5000490;28;20274;-69
2022/10/29 05:59:04;;;;;;;0.52;0.52;;;12.30;99.90;;;;;;5014679;28;20182;-69
2022/10/29 06:01:30;;;;;;;0.00;0.00;;;12.30;99.90;;;;;;5014986;28;20230;-68
2022/10/29 06:03:56;;;;;;;0.00;0.00;;;12.20;99.90;;;;;;5025550;28;20430;-67
2022/10/29 06:06:22;;;;;;;0.25;0.25;;;12.20;99.90;;;;;;5014446;28;20186;-67
2022/10/29 06:08:47;;;;;;;0.00;0.00;;;12.20;99.90;;;;;;5028956;28;20210;-67
2022/10/29 06:11:13;;;;;;;0.20;0.20;;;12.10;99.90;;;;;;5034173;28;20179;-67
2022/10/29 06:13:38;;;;;;;0.00;0.00;;;12.10;99.90;;;;;;5025783;28;20178;-67
2022/10/29 06:16:04;;;;;;;0.00;0.00;;;12.10;99.90;;;;;;5014239;28;20167;-67
2022/10/29 06:18:29;;;;;;;0.00;0.00;;;12.10;99.90;;;;;;5013901;28;20178;-67
2022/10/29 06:20:59;;;;;;;0.00;0.00;;;12.00;99.90;;;;;;5028278;28;20541;-67
2022/10/29 06:23:25;;;;;;;0.10;0.10;;;12.10;99.90;;;;;;5033934;28;20174;-67
2022/10/29 06:25:51;;;;;;;0.00;0.00;;;12.00;99.90;;;;;;5033751;28;20167;-67
2022/10/29 06:28:17;;;;;;;0.00;0.00;;;12.00;99.90;;;;;;5033759;28;20622;-67
2022/10/29 06:30:50;;;;;;;1.75;0.73;;;12.00;99.90;;;;;;5032427;28;20586;-67
2022/10/29 06:33:19;;;;;;;0.10;0.10;;;12.10;99.90;;;;;;5016064;28;20186;-67
2022/10/29 06:35:45;;;;;;;0.00;0.00;;;12.10;99.90;;;;;;5003648;28;20215;-67
2022/10/29 06:38:11;;;;;;;0.57;0.57;;;12.30;99.90;;;;;;4994167;28;20619;-67
2022/10/29 06:40:37;;;;;;;0.00;0.00;;;12.50;99.90;;;;;;4997600;28;20215;-67
2022/10/29 06:43:05;;;;;;;0.00;0.00;;;12.50;99.90;;;;;;5013427;28;20190;-67
2022/10/29 06:45:31;;;;;;;0.00;0.00;;;12.60;99.90;;;;;;5006948;28;20274;-67
2022/10/29 06:47:57;;;;;;;0.00;0.00;;;12.60;99.90;;;;;;5010550;28;20300;-67
2022/10/29 06:50:23;;;;;;;0.10;0.10;;;12.60;99.90;;;;;;5008361;28;20219;-66
2022/10/29 06:53:00;;;;;;;0.00;0.00;;;12.70;99.90;;;;;;4996414;28;20191;-66
2022/10/29 06:55:27;;;;;;;0.00;0.00;;;12.70;99.90;;;;;;5013422;28;20539;-66
2022/10/29 06:58:06;;;;;;;0.00;0.00;;;12.80;99.90;;;;;;5005051;28;20191;-67
2022/10/29 07:00:33;;;;;;;0.15;0.15;;;12.80;99.90;;;;;;5004082;28;20269;-67
2022/10/29 07:02:59;;;;;;;0.70;0.30;;;12.90;99.90;;;;;;5013471;28;20230;-67
2022/10/29 07:05:25;;;;;;;0.20;0.20;;;12.90;99.90;;;;;;5012062;28;20186;-67
2022/10/29 07:07:58;;;;;;;0.20;0.20;;;13.10;99.90;;;;;;5007414;28;20566;-67
2022/10/29 07:10:25;;;;;;;0.55;0.55;;;13.20;99.90;;;;;;4993586;28;20225;-67
2022/10/29 07:12:50;;;;;;;0.00;0.00;;;13.30;99.90;;;;;;4992794;28;20646;-67
2022/10/29 07:15:16;;;;;;;0.00;0.00;;;13.70;99.90;;;;;;4993587;28;20195;-67
2022/10/29 07:17:42;;;;;;;0.10;0.10;;;14.00;99.90;;;;;;4998480;28;20193;-67
2022/10/29 07:20:08;;;;;;;0.00;0.00;;;14.40;99.90;;;;;;5013130;28;20604;-67
2022/10/29 07:22:34;;;;;;;0.00;0.00;;;14.80;99.90;;;;;;5013461;28;20527;-67
2022/10/29 07:25:00;;;;;;;0.00;0.00;;;15.10;99.90;;;;;;5013160;28;20217;-67
2022/10/29 07:27:27;;;;;;;0.10;0.10;;;15.60;99.90;;;;;;5012956;28;20218;-68
2022/10/29 07:29:52;;;;;;;0.00;0.00;;;16.00;99.90;;;;;;5012940;28;20223;-67
2022/10/29 07:32:18;;;;;;;0.08;0.03;;;16.30;99.90;;;;;;5012955;28;20537;-67
2022/10/29 07:34:43;;;;;;;0.00;0.00;;;16.70;99.90;;;;;;5012938;28;20175;-67
2022/10/29 07:37:09;;;;;;;0.00;0.00;;;16.90;99.90;;;;;;5012924;28;20262;-67
2022/10/29 07:39:34;;;;;;;0.08;0.08;;;17.10;99.90;;;;;;5012925;28;20179;-67
2022/10/29 07:42:00;;;;;;;1.00;0.28;;;17.30;99.90;;;;;;5012897;28;20537;-67
2022/10/29 07:44:26;;;;;;;0.00;0.00;;;17.50;99.90;;;;;;5012737;28;20579;-67
2022/10/29 07:46:51;;;;;;;0.00;0.00;;;17.60;99.90;;;;;;5012818;28;20268;-67
2022/10/29 07:49:17;;;;;;;0.00;0.00;;;17.60;99.90;;;;;;5012774;28;20187;-67
2022/10/29 07:51:42;;;;;;;0.15;0.08;;;17.80;99.90;;;;;;5012777;28;20724;-67
2022/10/29 07:54:08;;;;;;;0.00;0.00;;;18.00;99.90;;;;;;5012639;28;20657;-67
2022/10/29 07:56:33;;;;;;;0.00;0.00;;;18.00;99.90;;;;;;5012651;28;20218;-67
2022/10/29 07:58:59;;;;;;;0.10;0.10;;;18.00;99.90;;;;;;5012625;28;20228;-67
2022/10/29 08:01:24;;;;;;;0.10;0.10;;;17.90;99.90;;;;;;5012598;28;20167;-67
2022/10/29 08:03:50;;;;;;;0.00;0.00;;;17.80;99.90;;;;;;5012626;28;20262;-67
2022/10/29 08:06:16;;;;;;;0.15;0.15;;;17.70;99.90;;;;;;5012397;28;20285;-67
2022/10/29 08:08:41;;;;;;;0.00;0.00;;;17.60;99.90;;;;;;5012325;28;20755;-67
2022/10/29 08:11:07;;;;;;;0.22;0.10;;;17.50;99.90;;;;;;5012462;28;20249;-67
2022/10/29 08:13:33;;;;;;;0.05;0.05;;;17.40;99.90;;;;;;5012393;28;20537;-67
2022/10/29 08:15:59;;;;;;;0.05;0.05;;;17.30;99.90;;;;;;5012363;28;20558;-67
2022/10/29 08:18:25;;;;;;;0.03;0.03;;;17.30;99.90;;;;;;5012051;28;20185;-67
2022/10/29 08:20:50;;;;;;;0.10;0.10;;;17.30;99.90;;;;;;5012318;28;20167;-67
2022/10/29 08:23:16;;;;;;;0.30;0.30;;;17.30;99.90;;;;;;5012853;28;20225;-67
2022/10/29 08:25:44;;;;;;;0.00;0.00;;;17.30;99.90;;;;;;5014009;28;20182;-68
2022/10/29 08:28:14;;;;;;;0.00;0.00;;;17.40;99.90;;;;;;5016203;28;20221;-69
2022/10/29 08:30:42;;;;;;;0.00;0.00;;;17.40;99.90;;;;;;5013804;28;20218;-68
2022/10/29 08:33:09;;;;;;;0.00;0.00;;;17.50;99.90;;;;;;4999333;28;20539;-68
2022/10/29 08:35:35;;;;;;;0.00;0.00;;;17.60;99.90;;;;;;4996314;28;20218;-68
2022/10/29 08:38:00;;;;;;;0.03;0.03;;;17.70;99.90;;;;;;4996758;28;20231;-68
2022/10/29 08:40:43;;;;;;;0.00;0.00;;;17.70;99.90;;;;;;4997380;28;20179;-68
2022/10/29 08:43:27;;;;;;;0.00;0.00;;;17.70;99.90;;;;;;4995992;28;20617;-68
2022/10/29 08:45:54;;;;;;;0.00;0.00;;;17.80;99.90;;;;;;4998022;28;20175;-68
2022/10/29 08:48:40;;;;;;;0.00;0.00;;;17.90;99.90;;;;;;4995997;28;20591;-67
2022/10/29 08:51:27;;;;;;;0.10;0.10;;;17.90;99.90;;;;;;5011355;28;20186;-66
2022/10/29 08:53:54;;;;;;;0.20;0.20;;;18.00;99.90;;;;;;5016000;28;20534;-67
2022/10/29 08:56:31;;;;;;;0.00;0.00;;;18.00;99.90;;;;;;5010406;28;20183;-67
2022/10/29 08:59:11;;;;;;;0.10;0.10;;;18.10;99.90;;;;;;5009132;28;20555;-66
2022/10/29 09:01:37;;;;;;;0.03;0.03;;;18.30;99.90;;;;;;5015800;28;20189;-66
2022/10/29 09:04:18;;;;;;;0.00;0.00;;;18.50;99.90;;;;;;5015629;28;20543;-67
2022/10/29 09:06:56;;;;;;;0.75;0.10;;;18.80;99.90;;;;;;5015554;28;20186;-68
2022/10/29 09:09:38;;;;;;;0.00;0.00;;;19.00;99.90;;;;;;5015544;28;20221;-67
2022/10/29 09:12:41;;;;;;;0.20;0.20;;;19.10;99.90;;;;;;5015483;28;20179;-67
2022/10/29 09:15:42;;;;;;;0.05;0.05;;;19.30;99.90;;;;;;5015407;28;20185;-67
2022/10/29 09:18:26;;;;;;;0.00;0.00;;;19.40;99.90;;;;;;5015410;28;20187;-68
2022/10/29 09:20:56;;;;;;;0.20;0.20;;;19.50;99.90;;;;;;5015432;28;20537;-67
2022/10/29 09:23:45;;;;;;;0.03;0.03;;;19.50;99.90;;;;;;5015331;28;20183;-67
2022/10/29 09:26:16;;;;;;;0.00;0.00;;;19.60;99.90;;;;;;5015481;28;20175;-68
2022/10/29 09:28:57;;;;;;;0.00;0.00;;;19.70;99.90;;;;;;5002832;28;20211;-67
2022/10/29 09:31:40;;;;;;;0.00;0.00;;;19.90;99.90;;;;;;4996874;28;20221;-67
2022/10/29 09:34:17;;;;;;;0.03;0.03;;;20.00;99.90;;;;;;4995468;28;20172;-67
2022/10/29 09:36:45;;;;;;;0.08;0.08;;;20.30;99.90;;;;;;4995508;28;20180;-68
2022/10/29 09:39:20;;;;;;;0.00;0.00;;;20.50;99.90;;;;;;4995440;28;20219;-68
2022/10/29 09:41:47;;;;;;;0.00;0.00;;;20.70;99.90;;;;;;4995613;28;20182;-68
2022/10/29 09:44:22;;;;;;;0.00;0.00;;;20.80;99.90;;;;;;4996203;28;20190;-68
2022/10/29 09:47:13;;;;;;;0.15;0.15;;;20.90;99.90;;;;;;5011525;28;20585;-68
2022/10/29 09:50:11;;;;;;;0.03;0.00;;;21.10;99.90;;;;;;5010403;28;20202;-68
2022/10/29 09:52:42;;;;;;;0.00;0.00;;;21.20;99.90;;;;;;4986889;28;20179;-68
2022/10/29 09:55:22;;;;;;;0.00;0.00;;;21.40;99.90;;;;;;5002208;28;20179;-68
2022/10/29 09:57:48;;;;;;;0.00;0.00;;;21.50;99.90;;;;;;5013006;28;20174;-69
2022/10/29 10:00:23;;;;;;;0.00;0.00;;;21.70;99.90;;;;;;5002915;28;20658;-68
2022/10/29 10:03:17;;;;;;;0.00;0.00;;;21.80;99.90;;;;;;5010303;28;20190;-71
2022/10/29 10:06:07;;;;;;;0.00;0.00;;;21.90;99.90;;;;;;5004270;28;20381;-70
2022/10/29 10:08:34;;;;;;;0.00;0.00;;;22.00;99.90;;;;;;4999645;28;20218;-70
2022/10/29 10:11:03;;;;;;;0.00;0.00;;;22.10;99.90;;;;;;5014482;28;20206;-69
2022/10/29 10:13:37;;;;;;;0.05;0.05;;;22.20;99.90;;;;;;5012833;28;20187;-69
2022/10/29 10:16:04;;;;;;;0.00;0.00;;;22.40;99.90;;;;;;4998697;28;20210;-68
2022/10/29 10:18:30;;;;;;;0.00;0.00;;;22.60;99.90;;;;;;5005690;28;20182;-69
2022/10/29 10:21:08;;;;;;;0.20;0.20;;;22.70;99.90;;;;;;5013690;28;20171;-68
2022/10/29 10:23:47;;;;;;;0.25;0.25;;;22.90;99.90;;;;;;4998039;28;20187;-67
2022/10/29 10:26:35;;;;;;;0.00;0.00;;;23.00;99.90;;;;;;5011772;28;20190;-67
2022/10/29 10:29:13;;;;;;;0.00;0.00;;;23.10;99.90;;;;;;5013103;28;20214;-67
2022/10/29 10:31:44;;;;;;;0.08;0.08;;;23.10;99.90;;;;;;5011077;28;20260;-67
2022/10/29 10:34:21;;;;;;;0.00;0.00;;;23.20;99.90;;;;;;5014041;28;20179;-67
2022/10/29 10:37:01;;;;;;;0.15;0.00;;;23.40;99.90;;;;;;5013939;28;20178;-67
2022/10/29 10:39:28;;;;;;;0.08;0.08;;;23.40;99.90;;;;;;5013945;28;20206;-67
2022/10/29 10:41:58;;;;;;;0.00;0.00;;;23.50;99.90;;;;;;5013962;28;20575;-67
2022/10/29 10:44:24;;;;;;;0.17;0.17;;;23.60;99.90;;;;;;5013765;28;20626;-67
2022/10/29 10:46:53;;;;;;;0.00;0.00;;;23.70;99.90;;;;;;5012254;28;20183;-67
2022/10/29 10:49:30;;;;;;;0.00;0.00;;;23.80;99.90;;;;;;5013523;28;20179;-67
2022/10/29 10:51:58;;;;;;;0.00;0.00;;;23.90;99.90;;;;;;5013837;28;20190;-67
2022/10/29 10:54:29;;;;;;;0.00;0.00;;;24.10;99.90;;;;;;5013556;28;20525;-67
2022/10/29 10:57:01;;;;;;;0.00;0.00;;;24.10;99.90;;;;;;5013633;28;20697;-67
2022/10/29 10:59:41;;;;;;;0.28;0.28;;;24.30;99.90;;;;;;5011045;28;20262;-67
2022/10/29 11:02:29;;;;;;;0.03;0.03;;;24.40;99.90;;;;;;4993921;28;20661;-67
2022/10/29 11:05:18;;;;;;;0.00;0.00;;;24.50;99.90;;;;;;4993852;28;20187;-67
2022/10/29 11:07:58;;;;;;;0.00;0.00;;;24.60;99.90;;;;;;4994735;28;20219;-67
2022/10/29 11:10:50;;;;;;;0.60;0.60;;;24.70;99.90;;;;;;5001345;28;20195;-68
2022/10/29 11:13:21;;;;;;;0.00;0.00;;;24.90;99.90;;;;;;5005479;28;20646;-67
2022/10/29 11:15:56;;;;;;;0.00;0.00;;;25.00;99.20;;;;;;5011483;28;20185;-68
2022/10/29 11:18:33;;;;;;;0.10;0.10;;;25.10;99.50;;;;;;5009884;28;20265;-68
2022/10/29 11:21:13;;;;;;;0.17;0.17;;;25.20;99.00;;;;;;4997852;28;20536;-67
2022/10/29 11:23:59;;;;;;;0.00;0.00;;;25.30;98.60;;;;;;5009910;28;20573;-67
2022/10/29 11:26:34;;;;;;;0.00;0.00;;;25.30;98.20;;;;;;5008077;28;20202;-67
2022/10/29 11:29:13;;;;;;;0.00;0.00;;;25.30;98.60;;;;;;5012825;28;20230;-67
2022/10/29 11:32:06;;;;;;;0.08;0.08;;;25.50;98.60;;;;;;5010980;28;20194;-67
2022/10/29 11:34:42;;;;;;;0.00;0.00;;;25.60;98.20;;;;;;5010872;28;20193;-67
2022/10/29 11:37:24;;;;;;;0.00;0.00;;;25.70;98.00;;;;;;5002918;28;20174;-67
2022/10/29 11:40:04;;;;;;;0.00;0.00;;;25.90;97.40;;;;;;5008254;28;20189;-67
2022/10/29 11:42:29;;;;;;;0.15;0.15;;;25.80;97.10;;;;;;4993508;28;20193;-66
2022/10/29 11:44:58;;;;;;;0.05;0.05;;;25.70;97.10;;;;;;5003796;28;20179;-66
2022/10/29 11:47:39;;;;;;;0.25;0.20;;;25.70;96.90;;;;;;5007596;28;20293;-67
2022/10/29 11:50:34;;;;;;;0.00;0.00;;;25.80;96.60;;;;;;5005218;28;20246;-67
2022/10/29 11:53:10;;;;;;;0.00;0.00;;;25.90;96.70;;;;;;4990575;28;20690;-66
2022/10/29 11:55:55;;;;;;;0.00;0.00;;;25.90;96.40;;;;;;4997882;28;20206;-67
2022/10/29 11:58:33;;;;;;;0.00;0.00;;;26.00;96.10;;;;;;4999072;28;20795;-69
2022/10/29 12:01:08;;;;;;;0.00;0.00;;;25.90;95.00;;;;;;5010305;28;20183;-69
2022/10/29 12:04:08;;;;;;;0.10;0.10;;;25.90;95.80;;;;;;5001107;28;20183;-67
2022/10/29 12:06:42;;;;;;;0.00;0.00;;;26.10;95.60;;;;;;4998226;28;20244;-69
2022/10/29 12:09:29;;;;;;;0.00;0.00;;;26.20;94.90;;;;;;5006725;28;20194;-67
2022/10/29 12:12:02;;;;;;;0.20;0.20;;;26.30;94.80;;;;;;4998161;28;20278;-67
2022/10/29 12:14:46;;;;;;;0.10;0.10;;;26.20;95.40;;;;;;5000414;28;20270;-67
2022/10/29 12:17:20;;;;;;;0.20;0.20;;;26.20;95.00;;;;;;4994819;28;20179;-68
2022/10/29 12:19:51;;;;;;;0.10;0.10;;;26.30;94.60;;;;;;4997552;28;20180;-68
2022/10/29 12:22:31;;;;;;;0.00;0.00;;;26.50;93.80;;;;;;5006877;28;20193;-67
2022/10/29 12:25:09;;;;;;;0.00;0.00;;;26.60;93.30;;;;;;5007850;28;20186;-68
2022/10/29 12:27:44;;;;;;;0.00;0.00;;;26.70;91.70;;;;;;4993009;28;20749;-67
2022/10/29 12:30:14;;;;;;;0.00;0.00;;;26.80;91.70;;;;;;5000246;28;20280;-68
2022/10/29 12:32:53;;;;;;;0.00;0.00;;;26.90;91.20;;;;;;5008896;28;20191;-68
2022/10/29 12:35:34;;;;;;;0.00;0.00;;;26.80;90.40;;;;;;5010543;28;20244;-67
2022/10/29 12:38:41;;;;;;;0.00;0.00;;;26.90;90.50;;;;;;5012012;28;20214;-67
2022/10/29 12:41:31;;;;;;;0.00;0.00;;;26.90;90.70;;;;;;5009851;28;20182;-68
2022/10/29 12:44:26;;;;;;;0.00;0.00;;;26.90;90.50;;;;;;5008104;28;20320;-68
2022/10/29 12:47:09;;;;;;;0.03;0.00;;;26.90;87.20;;;;;;5012100;28;20170;-68
2022/10/29 12:50:02;;;;;;;0.00;0.00;;;26.90;87.90;;;;;;5009553;28;20203;-68
2022/10/29 12:53:03;;;;;;;0.00;0.00;;;26.80;84.70;;;;;;5002476;28;20705;-68
2022/10/29 12:55:30;;;;;;;0.00;0.00;;;26.70;85.30;;;;;;5004599;28;20248;-68
2022/10/29 12:57:56;;;;;;;0.00;0.00;;;26.70;85.00;;;;;;5010961;28;20233;-68
2022/10/29 13:00:26;;;;;;;0.22;0.10;;;26.80;83.80;;;;;;5003558;28;20195;-67
2022/10/29 13:02:52;;;;;;;0.43;0.22;;;26.90;81.90;;;;;;4992228;28;20179;-68
2022/10/29 13:05:33;;;;;;;0.00;0.00;;;26.90;81.80;;;;;;4992001;28;20179;-68
2022/10/29 13:08:01;;;;;;;0.00;0.00;;;27.00;82.30;;;;;;4992992;28;20206;-67
2022/10/29 13:10:30;;;;;;;0.00;0.00;;;27.00;80.00;;;;;;4994485;28;20254;-68